Time;durP1;ratioP1;P1;durP2;ratioP2;P2;SDS_P1;SDS_P2;PMS_P1;PMS_P2;Temp;Humidity;BMP_temperature;BMP_pressure;BME280_temperature;BME280_humidity;BME280_pressure;Samples;Min_cycle;Max_cycle;Signal;HPM_P1;HPM_P2
2022/03/26 00:00:25;;;;;;;0.25;0.25;;;3.50;1.00;;;;;;5017452;28;20412;-72
2022/03/26 00:02:51;;;;;;;0.20;0.20;;;3.40;1.00;;;;;;5016803;28;20033;-71
2022/03/26 00:05:18;;;;;;;0.38;0.38;;;3.40;1.00;;;;;;5017416;28;20048;-72
2022/03/26 00:07:44;;;;;;;0.38;0.38;;;3.40;1.00;;;;;;5017672;28;20558;-71
2022/03/26 00:10:11;;;;;;;0.10;0.10;;;3.30;1.00;;;;;;5017080;28;20038;-71
2022/03/26 00:12:37;;;;;;;0.10;0.10;;;3.20;1.00;;;;;;5016708;28;20129;-71
2022/03/26 00:15:10;;;;;;;0.30;0.30;;;3.30;6.90;;;;;;5017030;28;20520;-72
2022/03/26 00:17:37;;;;;;;0.10;0.10;;;3.10;1.00;;;;;;5016231;28;20108;-72
2022/03/26 00:20:04;;;;;;;0.50;0.50;;;3.10;1.00;;;;;;5017205;28;20121;-72
2022/03/26 00:22:29;;;;;;;0.52;0.52;;;3.10;8.00;;;;;;5016801;28;20381;-72
2022/03/26 00:24:55;;;;;;;0.10;0.10;;;3.10;10.90;;;;;;5016831;28;20117;-72
2022/03/26 00:27:21;;;;;;;0.10;0.10;;;3.20;1.60;;;;;;5017599;28;20054;-71
2022/03/26 00:29:47;;;;;;;0.17;0.17;;;3.20;1.00;;;;;;5017491;28;20065;-71
2022/03/26 00:32:13;;;;;;;0.22;0.13;;;3.20;1.00;;;;;;5017100;28;20091;-72
2022/03/26 00:34:39;;;;;;;0.00;0.00;;;3.10;1.00;;;;;;5017130;28;20378;-72
2022/03/26 00:37:05;;;;;;;0.10;0.10;;;3.10;1.00;;;;;;5016978;28;20074;-71
2022/03/26 00:39:31;;;;;;;0.22;0.22;;;3.10;1.10;;;;;;5017063;28;20040;-72
2022/03/26 00:41:57;;;;;;;0.10;0.10;;;3.10;1.00;;;;;;5016966;28;20041;-72
2022/03/26 00:44:23;;;;;;;0.17;0.17;;;3.20;1.00;;;;;;5016960;28;20092;-72
2022/03/26 00:46:50;;;;;;;0.32;0.32;;;3.00;1.30;;;;;;5016930;28;20065;-72
2022/03/26 00:49:17;;;;;;;0.50;0.50;;;3.10;1.00;;;;;;5016839;28;20061;-72
2022/03/26 00:51:43;;;;;;;0.20;0.20;;;3.00;4.50;;;;;;5017287;28;20099;-72
2022/03/26 00:54:10;;;;;;;0.73;0.22;;;3.10;3.40;;;;;;5016802;28;20077;-72
2022/03/26 00:56:37;;;;;;;0.10;0.10;;;2.90;1.00;;;;;;5015966;28;20048;-72
2022/03/26 00:59:04;;;;;;;0.10;0.10;;;2.90;1.00;;;;;;5016911;28;20045;-72
2022/03/26 01:01:31;;;;;;;0.30;0.30;;;2.80;4.30;;;;;;5017276;28;20045;-72
2022/03/26 01:03:58;;;;;;;0.32;0.30;;;2.90;10.60;;;;;;5016197;28;20116;-72
2022/03/26 01:06:23;;;;;;;0.63;0.63;;;2.80;4.80;;;;;;5016734;28;20041;-72
2022/03/26 01:08:50;;;;;;;0.25;0.25;;;2.90;2.40;;;;;;5016527;28;20044;-72
2022/03/26 01:11:17;;;;;;;3.38;0.55;;;2.80;2.50;;;;;;5016380;28;20040;-72
2022/03/26 01:13:44;;;;;;;0.17;0.17;;;2.80;9.10;;;;;;5014969;28;20077;-72
2022/03/26 01:16:09;;;;;;;0.13;0.13;;;2.70;10.90;;;;;;5015828;28;20112;-72
2022/03/26 01:18:36;;;;;;;0.10;0.10;;;2.70;8.50;;;;;;5016636;28;20045;-72
2022/03/26 01:21:03;;;;;;;0.35;0.30;;;2.80;18.60;;;;;;5016060;28;20038;-72
2022/03/26 01:23:29;;;;;;;0.20;0.20;;;2.70;11.00;;;;;;5016054;28;20118;-72
2022/03/26 01:25:55;;;;;;;2.60;0.50;;;2.70;6.70;;;;;;5016169;28;20038;-72
2022/03/26 01:28:21;;;;;;;0.30;0.30;;;2.60;16.20;;;;;;5016214;28;20045;-72
2022/03/26 01:30:47;;;;;;;0.20;0.20;;;2.60;11.10;;;;;;5016325;28;20500;-72
2022/03/26 01:33:13;;;;;;;1.70;0.68;;;2.60;14.80;;;;;;5015859;28;20041;-72
2022/03/26 01:35:39;;;;;;;0.00;0.00;;;2.60;11.70;;;;;;5015791;28;20049;-72
2022/03/26 01:38:06;;;;;;;0.30;0.30;;;2.50;18.30;;;;;;5015454;28;20050;-72
2022/03/26 01:40:34;;;;;;;0.00;0.00;;;2.50;22.50;;;;;;5015638;28;20169;-72
2022/03/26 01:43:00;;;;;;;0.20;0.20;;;2.40;21.80;;;;;;5015970;28;20065;-72
2022/03/26 01:45:27;;;;;;;0.10;0.10;;;2.50;19.90;;;;;;5015933;28;20049;-72
2022/03/26 01:47:54;;;;;;;0.10;0.10;;;2.40;23.00;;;;;;5015155;28;20084;-72
2022/03/26 01:50:20;;;;;;;0.43;0.43;;;2.30;21.70;;;;;;5015778;28;20042;-72
2022/03/26 01:52:46;;;;;;;0.32;0.32;;;2.30;16.80;;;;;;5014765;28;20041;-72
2022/03/26 01:55:11;;;;;;;0.40;0.40;;;2.30;14.10;;;;;;5014787;28;20048;-72
2022/03/26 01:57:38;;;;;;;0.10;0.10;;;2.30;16.50;;;;;;5014758;28;20026;-71
2022/03/26 02:00:08;;;;;;;0.10;0.10;;;2.30;17.40;;;;;;5015182;28;20124;-72
2022/03/26 02:02:34;;;;;;;0.00;0.00;;;2.30;10.20;;;;;;4997962;28;20070;-72
2022/03/26 02:05:00;;;;;;;0.20;0.20;;;2.20;22.00;;;;;;5015688;28;20112;-72
2022/03/26 02:07:26;;;;;;;0.30;0.30;;;2.20;22.50;;;;;;5014794;28;20099;-72
2022/03/26 02:09:52;;;;;;;0.20;0.20;;;2.20;18.50;;;;;;5014842;28;20103;-72
2022/03/26 02:12:36;;;;;;;2.65;1.27;;;2.10;17.50;;;;;;5014284;28;20066;-72
2022/03/26 02:15:04;;;;;;;0.32;0.32;;;2.20;28.20;;;;;;5015643;28;20172;-72
2022/03/26 02:17:30;;;;;;;0.47;0.30;;;2.20;29.90;;;;;;5007835;28;20045;-72
2022/03/26 02:20:00;;;;;;;0.82;0.82;;;2.10;15.20;;;;;;5014421;28;20033;-72
2022/03/26 02:22:28;;;;;;;0.10;0.10;;;2.10;27.20;;;;;;5014583;28;20131;-71
2022/03/26 02:24:54;;;;;;;0.20;0.20;;;1.90;20.20;;;;;;5014864;28;20094;-72
2022/03/26 02:27:22;;;;;;;0.25;0.25;;;2.00;22.90;;;;;;5014949;28;20058;-72
2022/03/26 02:29:48;;;;;;;0.38;0.32;;;2.00;33.50;;;;;;5014731;28;20038;-72
2022/03/26 02:32:17;;;;;;;0.05;0.05;;;2.00;30.70;;;;;;5015279;28;20073;-72
2022/03/26 02:34:43;;;;;;;0.10;0.10;;;2.00;15.80;;;;;;5014314;28;20589;-72
2022/03/26 02:37:09;;;;;;;1.08;0.47;;;1.90;22.70;;;;;;5014864;28;20077;-72
2022/03/26 02:39:34;;;;;;;1.85;0.57;;;1.90;35.60;;;;;;5015022;28;20065;-72
2022/03/26 02:42:00;;;;;;;0.45;0.45;;;1.90;33.50;;;;;;5014662;28;20038;-72
2022/03/26 02:44:26;;;;;;;0.20;0.20;;;1.80;41.50;;;;;;5014304;28;20048;-72
2022/03/26 02:46:53;;;;;;;0.10;0.10;;;1.70;52.40;;;;;;5014793;28;20124;-72
2022/03/26 02:49:19;;;;;;;0.28;0.28;;;1.70;55.20;;;;;;5013399;28;20038;-72
2022/03/26 02:51:44;;;;;;;0.10;0.10;;;1.80;51.10;;;;;;5014716;28;20130;-72
2022/03/26 02:54:18;;;;;;;0.13;0.13;;;1.80;41.80;;;;;;5014387;28;20038;-72
2022/03/26 02:56:49;;;;;;;1.30;1.25;;;1.80;46.00;;;;;;5014851;28;20046;-72
2022/03/26 02:59:15;;;;;;;0.28;0.28;;;1.70;53.70;;;;;;5014087;28;20069;-72
2022/03/26 03:01:41;;;;;;;0.25;0.20;;;1.70;67.40;;;;;;5014645;28;20104;-72
2022/03/26 03:04:08;;;;;;;0.73;0.73;;;1.70;45.60;;;;;;5014685;28;20037;-72
2022/03/26 03:06:34;;;;;;;0.77;0.77;;;1.70;44.30;;;;;;5013841;28;20042;-72
2022/03/26 03:09:01;;;;;;;0.38;0.38;;;1.70;41.70;;;;;;5013997;28;20127;-72
2022/03/26 03:11:27;;;;;;;1.50;1.42;;;1.60;47.20;;;;;;5015041;28;20125;-72
2022/03/26 03:13:53;;;;;;;0.10;0.10;;;1.60;43.60;;;;;;5014229;28;20125;-72
2022/03/26 03:16:19;;;;;;;0.10;0.10;;;1.60;52.80;;;;;;5014602;28;20045;-72
2022/03/26 03:18:45;;;;;;;0.95;0.40;;;1.60;51.90;;;;;;5013977;28;20504;-72
2022/03/26 03:21:11;;;;;;;0.30;0.30;;;1.40;35.40;;;;;;5014560;28;20056;-72
2022/03/26 03:23:37;;;;;;;0.10;0.10;;;1.50;61.60;;;;;;5013773;28;20038;-72
2022/03/26 03:26:03;;;;;;;0.10;0.10;;;1.50;39.40;;;;;;5013529;28;20144;-72
2022/03/26 03:28:29;;;;;;;0.30;0.30;;;1.50;40.20;;;;;;5013816;28;20034;-72
2022/03/26 03:30:55;;;;;;;0.95;0.63;;;1.50;51.60;;;;;;5014529;28;20041;-71
2022/03/26 03:33:21;;;;;;;0.00;0.00;;;1.50;51.80;;;;;;5014304;28;20030;-72
2022/03/26 03:35:47;;;;;;;0.10;0.10;;;1.50;52.30;;;;;;5013892;28;20057;-72
2022/03/26 03:38:13;;;;;;;0.05;0.05;;;1.50;37.00;;;;;;5013888;28;20042;-72
2022/03/26 03:40:39;;;;;;;0.17;0.17;;;1.40;57.80;;;;;;5014496;28;20046;-72
2022/03/26 03:43:05;;;;;;;0.10;0.10;;;1.60;62.90;;;;;;5013806;28;20065;-72
2022/03/26 03:45:31;;;;;;;1.35;0.40;;;1.50;57.20;;;;;;5014534;28;20061;-72
2022/03/26 03:47:57;;;;;;;0.40;0.40;;;1.40;57.20;;;;;;5013899;28;20440;-72
2022/03/26 03:50:23;;;;;;;0.15;0.15;;;1.50;65.60;;;;;;5014553;28;20124;-72
2022/03/26 03:52:49;;;;;;;0.00;0.00;;;1.40;49.80;;;;;;5013878;28;20121;-72
2022/03/26 03:55:14;;;;;;;0.28;0.28;;;1.30;57.00;;;;;;5013462;28;20172;-72
2022/03/26 03:57:44;;;;;;;0.30;0.30;;;1.40;57.90;;;;;;5013803;28;20041;-72
2022/03/26 04:00:14;;;;;;;0.20;0.20;;;1.30;46.70;;;;;;5013343;28;20112;-71
2022/03/26 04:02:41;;;;;;;0.00;0.00;;;1.40;62.40;;;;;;5013738;28;20052;-72
2022/03/26 04:05:09;;;;;;;0.47;0.47;;;1.40;61.10;;;;;;5013924;28;20045;-72
2022/03/26 04:07:37;;;;;;;0.00;0.00;;;1.30;52.20;;;;;;5013722;28;20065;-72
2022/03/26 04:10:04;;;;;;;0.00;0.00;;;1.40;64.10;;;;;;5014045;28;20097;-72
2022/03/26 04:12:30;;;;;;;0.10;0.10;;;1.40;51.30;;;;;;5013806;28;20030;-72
2022/03/26 04:14:56;;;;;;;0.00;0.00;;;1.20;59.00;;;;;;5013990;28;20064;-72
2022/03/26 04:17:22;;;;;;;0.55;0.55;;;1.20;63.90;;;;;;5014200;28;20075;-72
2022/03/26 04:19:48;;;;;;;0.10;0.10;;;1.10;56.00;;;;;;5016928;28;20047;-72
2022/03/26 04:22:14;;;;;;;0.15;0.15;;;1.20;74.60;;;;;;5016356;28;20034;-72
2022/03/26 04:24:40;;;;;;;0.10;0.10;;;1.30;74.60;;;;;;5016435;28;20168;-72
2022/03/26 04:27:06;;;;;;;1.95;1.13;;;1.30;66.80;;;;;;5017331;28;20476;-72
2022/03/26 04:29:32;;;;;;;0.10;0.10;;;1.40;72.40;;;;;;5017309;28;20042;-72
2022/03/26 04:31:59;;;;;;;0.03;0.03;;;1.40;71.30;;;;;;5017323;28;20507;-72
2022/03/26 04:34:25;;;;;;;0.40;0.40;;;1.40;57.40;;;;;;5017101;28;20072;-72
2022/03/26 04:36:51;;;;;;;0.10;0.10;;;1.30;60.20;;;;;;5016558;28;20050;-72
2022/03/26 04:39:17;;;;;;;1.45;0.52;;;1.30;71.50;;;;;;5017449;28;20045;-71
2022/03/26 04:41:43;;;;;;;0.10;0.10;;;1.20;74.00;;;;;;5017480;28;20038;-72
2022/03/26 04:44:09;;;;;;;0.63;0.60;;;1.20;78.00;;;;;;5016912;28;20501;-72
2022/03/26 04:46:34;;;;;;;0.17;0.17;;;1.30;80.90;;;;;;5016526;28;20042;-72
2022/03/26 04:49:00;;;;;;;0.30;0.30;;;1.40;67.00;;;;;;5016918;28;20077;-72
2022/03/26 04:51:26;;;;;;;0.08;0.08;;;1.20;69.20;;;;;;5016654;28;20042;-72
2022/03/26 04:53:52;;;;;;;0.32;0.32;;;1.10;79.90;;;;;;5015943;28;20068;-71
2022/03/26 04:56:19;;;;;;;0.05;0.05;;;1.10;89.50;;;;;;5016373;28;20128;-72
2022/03/26 04:58:44;;;;;;;0.10;0.10;;;1.30;85.90;;;;;;5016033;28;20523;-72
2022/03/26 05:01:11;;;;;;;0.10;0.10;;;1.30;76.20;;;;;;5016201;28;20034;-72
2022/03/26 05:03:36;;;;;;;1.20;0.90;;;1.30;60.10;;;;;;5016481;28;20038;-72
2022/03/26 05:06:02;;;;;;;0.22;0.22;;;1.20;63.40;;;;;;5016787;28;20523;-72
2022/03/26 05:08:28;;;;;;;0.22;0.20;;;1.10;77.10;;;;;;5016843;28;20042;-72
2022/03/26 05:10:54;;;;;;;0.20;0.20;;;1.10;85.60;;;;;;5016304;28;20037;-70
2022/03/26 05:13:20;;;;;;;0.10;0.10;;;1.10;78.40;;;;;;5016020;28;20049;-72
2022/03/26 05:15:46;;;;;;;0.32;0.32;;;1.10;88.20;;;;;;5016869;28;20091;-72
2022/03/26 05:18:13;;;;;;;0.10;0.10;;;1.10;86.60;;;;;;5016542;28;20121;-72
2022/03/26 05:20:39;;;;;;;0.28;0.28;;;1.10;92.10;;;;;;5015998;28;20034;-72
2022/03/26 05:23:05;;;;;;;0.38;0.30;;;1.10;78.70;;;;;;5015322;28;20073;-72
2022/03/26 05:25:31;;;;;;;0.30;0.30;;;0.90;88.90;;;;;;4997918;28;20125;-72
2022/03/26 05:27:58;;;;;;;0.77;0.65;;;1.00;81.60;;;;;;5016150;28;20065;-72
2022/03/26 05:30:24;;;;;;;0.00;0.00;;;1.00;90.00;;;;;;5015789;28;20265;-72
2022/03/26 05:32:50;;;;;;;0.08;0.08;;;0.90;90.50;;;;;;5015788;28;20046;-72
2022/03/26 05:35:16;;;;;;;0.00;0.00;;;0.90;74.80;;;;;;5015598;28;20053;-72
2022/03/26 05:37:46;;;;;;;0.17;0.15;;;0.90;81.50;;;;;;5016074;28;20519;-72
2022/03/26 05:40:15;;;;;;;0.17;0.17;;;0.80;92.40;;;;;;5015464;28;20038;-72
2022/03/26 05:42:41;;;;;;;0.17;0.17;;;0.80;82.90;;;;;;5015630;28;20030;-72
2022/03/26 05:45:08;;;;;;;0.20;0.20;;;0.90;74.00;;;;;;5014979;28;20041;-72
2022/03/26 05:47:34;;;;;;;0.25;0.25;;;0.90;96.60;;;;;;4997967;28;20045;-72
2022/03/26 05:50:01;;;;;;;0.20;0.20;;;0.90;91.80;;;;;;5016248;28;20042;-72
2022/03/26 05:52:27;;;;;;;0.30;0.30;;;1.00;96.70;;;;;;5015310;28;20064;-72
2022/03/26 05:54:53;;;;;;;0.35;0.35;;;1.00;90.90;;;;;;5015647;28;20500;-72
2022/03/26 05:57:19;;;;;;;0.10;0.10;;;1.10;97.60;;;;;;5015007;28;20046;-72
2022/03/26 05:59:45;;;;;;;0.10;0.10;;;1.10;80.60;;;;;;5015789;28;20427;-72
2022/03/26 06:02:13;;;;;;;0.10;0.10;;;1.10;55.20;;;;;;5015232;28;20513;-71
2022/03/26 06:04:43;;;;;;;0.20;0.20;;;1.30;49.60;;;;;;5014991;28;20037;-72
2022/03/26 06:07:09;;;;;;;0.03;0.03;;;1.40;62.10;;;;;;5015144;28;20041;-72
2022/03/26 06:09:38;;;;;;;0.35;0.35;;;1.50;54.90;;;;;;5013998;28;20041;-72
2022/03/26 06:12:05;;;;;;;0.28;0.28;;;1.60;52.60;;;;;;5015173;28;20121;-72
2022/03/26 06:14:31;;;;;;;0.47;0.47;;;1.80;39.30;;;;;;5015040;28;20497;-72
2022/03/26 06:16:57;;;;;;;0.10;0.10;;;1.80;36.40;;;;;;5015117;28;20076;-72
2022/03/26 06:19:25;;;;;;;0.10;0.10;;;2.00;28.50;;;;;;5015921;28;20492;-72
2022/03/26 06:21:51;;;;;;;0.20;0.15;;;1.90;18.90;;;;;;5014014;28;20030;-73
2022/03/26 06:24:17;;;;;;;0.30;0.30;;;2.10;29.60;;;;;;5014897;28;20053;-73
2022/03/26 06:26:44;;;;;;;0.85;0.85;;;2.20;18.20;;;;;;5014270;28;20061;-72
2022/03/26 06:29:11;;;;;;;0.45;0.45;;;2.30;16.60;;;;;;5014343;28;20139;-72
2022/03/26 06:31:38;;;;;;;0.15;0.15;;;2.50;14.20;;;;;;5014369;28;20125;-72
2022/03/26 06:34:04;;;;;;;0.05;0.05;;;2.50;9.20;;;;;;5026096;28;20060;-72
2022/03/26 06:36:30;;;;;;;0.30;0.30;;;2.60;1.00;;;;;;5032334;28;20132;-72
2022/03/26 06:38:56;;;;;;;0.10;0.10;;;2.60;9.00;;;;;;5006577;28;20168;-72
2022/03/26 06:41:23;;;;;;;0.00;0.00;;;2.70;5.90;;;;;;5014236;28;20060;-72
2022/03/26 06:43:48;;;;;;;0.03;0.03;;;2.80;3.20;;;;;;5013670;28;20520;-71
2022/03/26 06:46:15;;;;;;;0.30;0.30;;;2.80;3.00;;;;;;5014420;28;20041;-72
2022/03/26 06:48:40;;;;;;;0.10;0.10;;;3.00;1.00;;;;;;5014135;28;20041;-72
2022/03/26 06:51:08;;;;;;;0.17;0.17;;;3.00;1.00;;;;;;5014594;28;20042;-72
2022/03/26 06:53:34;;;;;;;0.10;0.10;;;3.10;1.00;;;;;;5022298;28;20029;-72
2022/03/26 06:56:04;;;;;;;0.30;0.30;;;3.30;1.00;;;;;;5034564;28;20484;-72
2022/03/26 06:58:30;;;;;;;0.32;0.32;;;3.00;1.00;;;;;;5019484;28;20069;-72
2022/03/26 07:00:58;;;;;;;0.10;0.10;;;2.90;1.00;;;;;;5014802;28;20038;-72
2022/03/26 07:03:25;;;;;;;0.22;0.22;;;3.10;1.00;;;;;;5014533;28;20431;-72
2022/03/26 07:05:51;;;;;;;0.13;0.13;;;3.40;1.00;;;;;;5015355;28;20049;-72
2022/03/26 07:08:17;;;;;;;0.43;0.43;;;3.50;1.00;;;;;;5015400;28;20072;-72
2022/03/26 07:10:46;;;;;;;0.20;0.20;;;3.60;1.00;;;;;;5011737;28;20041;-72
2022/03/26 07:13:14;;;;;;;0.30;0.30;;;3.80;1.00;;;;;;5034403;28;20041;-72
2022/03/26 07:15:41;;;;;;;1.38;0.93;;;3.80;1.00;;;;;;5034292;28;20049;-72
2022/03/26 07:18:08;;;;;;;0.10;0.10;;;3.90;1.00;;;;;;5034203;28;20056;-72
2022/03/26 07:20:34;;;;;;;1.13;1.13;;;3.90;1.00;;;;;;5016681;28;20492;-72
2022/03/26 07:22:59;;;;;;;0.43;0.43;;;4.00;1.00;;;;;;5018020;28;20026;-72
2022/03/26 07:25:25;;;;;;;0.10;0.10;;;4.20;1.00;;;;;;5003206;28;20041;-72
2022/03/26 07:27:51;;;;;;;1.95;0.70;;;4.20;1.00;;;;;;5010205;28;20038;-72
2022/03/26 07:30:17;;;;;;;0.10;0.10;;;4.20;1.00;;;;;;5014626;28;20073;-72
2022/03/26 07:32:43;;;;;;;0.40;0.38;;;4.10;1.00;;;;;;5013244;28;20092;-72
2022/03/26 07:35:09;;;;;;;1.52;0.88;;;4.30;1.00;;;;;;5013632;28;20050;-72
2022/03/26 07:37:35;;;;;;;0.20;0.20;;;4.50;1.00;;;;;;5012729;28;20048;-72
2022/03/26 07:40:02;;;;;;;0.17;0.17;;;4.50;1.00;;;;;;5010537;28;20050;-72
2022/03/26 07:42:28;;;;;;;0.30;0.30;;;4.60;1.00;;;;;;5013599;28;20033;-72
2022/03/26 07:44:54;;;;;;;0.20;0.20;;;4.80;1.00;;;;;;5008736;28;20052;-72
2022/03/26 07:47:20;;;;;;;0.32;0.32;;;4.90;1.00;;;;;;5014083;28;20038;-71
2022/03/26 07:49:46;;;;;;;1.08;1.00;;;5.10;1.00;;;;;;5013759;28;20037;-72
2022/03/26 07:52:12;;;;;;;0.20;0.20;;;5.10;1.00;;;;;;5013290;28;20412;-72
2022/03/26 07:54:39;;;;;;;0.08;0.08;;;5.40;1.00;;;;;;5013793;28;20273;-72
2022/03/26 07:57:05;;;;;;;0.63;0.63;;;5.50;1.00;;;;;;5014703;28;20054;-73
2022/03/26 07:59:32;;;;;;;0.25;0.25;;;5.60;1.00;;;;;;5015424;28;20049;-72
2022/03/26 08:01:58;;;;;;;0.30;0.30;;;5.60;1.00;;;;;;5014301;28;20045;-71
2022/03/26 08:04:24;;;;;;;0.22;0.22;;;5.80;1.00;;;;;;5015472;28;20038;-72
2022/03/26 08:06:49;;;;;;;0.28;0.28;;;6.00;1.00;;;;;;5017343;28;20046;-72
2022/03/26 08:09:15;;;;;;;0.20;0.20;;;6.10;1.00;;;;;;5013330;28;20038;-72
2022/03/26 08:11:42;;;;;;;0.10;0.10;;;6.20;1.00;;;;;;5017880;28;20034;-72
2022/03/26 08:14:08;;;;;;;0.20;0.20;;;6.30;1.00;;;;;;5017431;28;20400;-72
2022/03/26 08:16:34;;;;;;;0.10;0.10;;;6.30;1.00;;;;;;5017825;28;20042;-72
2022/03/26 08:19:00;;;;;;;0.73;0.73;;;6.40;1.00;;;;;;5015302;28;20042;-72
2022/03/26 08:21:27;;;;;;;0.20;0.20;;;6.60;1.00;;;;;;5015144;28;20030;-72
2022/03/26 08:23:54;;;;;;;0.68;0.68;;;6.90;1.00;;;;;;5015527;28;20041;-74
2022/03/26 08:26:20;;;;;;;0.32;0.25;;;7.00;1.00;;;;;;5017034;28;20104;-73
2022/03/26 22:16:53;;;;;;;0.20;0.20;;;4.70;1.00;;;;;;5126227;27;20116;-76
2022/03/26 22:19:19;;;;;;;0.28;0.28;;;4.60;1.00;;;;;;5122971;28;20424;-78
2022/03/26 22:21:45;;;;;;;0.32;0.32;;;4.60;1.00;;;;;;5111419;28;20036;-77
2022/03/26 22:24:11;;;;;;;0.45;0.45;;;4.60;1.00;;;;;;5124362;28;20066;-77
2022/03/26 22:26:37;;;;;;;0.20;0.20;;;4.60;1.00;;;;;;5118804;28;20051;-77
2022/03/26 22:29:05;;;;;;;0.30;0.30;;;4.40;1.00;;;;;;5120510;28;20073;-77
2022/03/26 22:31:32;;;;;;;0.20;0.20;;;4.40;1.00;;;;;;5110752;28;20089;-77
2022/03/26 22:33:58;;;;;;;0.40;0.40;;;4.30;1.00;;;;;;5110357;28;20066;-77
2022/03/26 22:36:25;;;;;;;0.20;0.20;;;4.30;1.00;;;;;;5110977;28;20600;-77
2022/03/26 22:38:51;;;;;;;0.25;0.25;;;4.30;1.00;;;;;;5117347;28;20620;-77
2022/03/26 22:41:16;;;;;;;0.40;0.40;;;4.30;1.00;;;;;;5112315;28;20114;-76
2022/03/26 22:43:42;;;;;;;0.98;0.88;;;4.30;1.00;;;;;;5091975;28;20032;-78
2022/03/26 22:46:08;;;;;;;0.20;0.20;;;4.30;1.00;;;;;;5111892;28;20086;-77
2022/03/26 22:48:34;;;;;;;0.63;0.45;;;4.30;1.00;;;;;;5111805;28;20047;-77
2022/03/26 22:51:00;;;;;;;0.15;0.15;;;4.10;1.00;;;;;;5111489;28;20049;-78
2022/03/26 22:53:26;;;;;;;0.35;0.35;;;4.10;1.00;;;;;;5111763;28;20046;-77
2022/03/26 22:55:52;;;;;;;0.15;0.15;;;4.10;3.70;;;;;;5093000;28;20054;-77
2022/03/26 22:58:18;;;;;;;0.17;0.17;;;4.10;1.00;;;;;;5111679;28;20035;-77
2022/03/26 23:00:44;;;;;;;0.10;0.10;;;4.10;1.00;;;;;;5111628;28;20062;-77
2022/03/26 23:03:10;;;;;;;0.32;0.32;;;4.10;1.00;;;;;;5111338;28;20482;-77
2022/03/26 23:05:36;;;;;;;0.20;0.20;;;4.00;1.00;;;;;;5111583;28;20505;-76
2022/03/26 23:08:02;;;;;;;0.10;0.10;;;4.00;9.30;;;;;;5093256;28;20028;-77
2022/03/26 23:10:29;;;;;;;0.10;0.10;;;4.00;9.30;;;;;;5111325;28;20395;-77
2022/03/26 23:12:57;;;;;;;0.90;0.70;;;3.90;5.80;;;;;;5111452;28;20040;-77
2022/03/26 23:15:24;;;;;;;0.20;0.20;;;3.90;8.70;;;;;;5110696;28;20060;-77
2022/03/26 23:17:51;;;;;;;0.38;0.38;;;3.90;14.70;;;;;;5111957;28;20036;-76
2022/03/26 23:20:18;;;;;;;0.10;0.10;;;3.80;12.80;;;;;;5111430;28;20042;-77
2022/03/26 23:22:44;;;;;;;0.40;0.40;;;3.80;12.00;;;;;;5111555;28;20036;-77
2022/03/26 23:25:10;;;;;;;0.10;0.10;;;3.80;13.00;;;;;;5111447;28;20051;-77
2022/03/26 23:27:37;;;;;;;0.40;0.40;;;3.70;17.70;;;;;;5101697;28;20471;-77
2022/03/26 23:30:06;;;;;;;0.30;0.30;;;3.80;18.80;;;;;;5097834;28;20074;-77
2022/03/26 23:32:32;;;;;;;0.20;0.20;;;3.80;18.60;;;;;;5097702;28;20039;-77
2022/03/26 23:34:58;;;;;;;0.20;0.20;;;3.80;24.10;;;;;;5097654;28;20048;-76
2022/03/26 23:37:24;;;;;;;0.10;0.10;;;3.80;17.30;;;;;;5097744;28;20055;-76
2022/03/26 23:39:50;;;;;;;0.30;0.20;;;3.70;18.50;;;;;;5098399;28;20044;-77
2022/03/26 23:42:16;;;;;;;0.30;0.30;;;3.70;22.40;;;;;;5097345;28;20098;-77
2022/03/26 23:44:43;;;;;;;0.10;0.10;;;3.70;18.10;;;;;;5097324;28;20487;-77
2022/03/26 23:47:10;;;;;;;0.60;0.60;;;3.70;16.90;;;;;;5097200;28;20123;-76
2022/03/26 23:49:36;;;;;;;0.20;0.20;;;3.60;22.50;;;;;;5097734;28;20043;-77
2022/03/26 23:52:02;;;;;;;0.20;0.20;;;3.50;23.80;;;;;;5097114;28;20425;-77
2022/03/26 23:54:28;;;;;;;0.20;0.20;;;3.60;16.00;;;;;;5097327;28;20032;-77
2022/03/26 23:56:54;;;;;;;0.38;0.38;;;3.50;18.80;;;;;;5097356;28;20036;-77
2022/03/26 23:59:20;;;;;;;0.43;0.43;;;3.50;21.10;;;;;;5097589;28;20047;-77
